createdAt,value
2022-09-02T00:00:03.169Z,940.59
2022-09-02T00:05:03.199Z,940.57
2022-09-02T00:10:03.237Z,940.63
2022-09-02T00:15:03.214Z,940.57
2022-09-02T00:20:03.384Z,940.61
2022-09-02T00:25:08.274Z,940.64
2022-09-02T00:30:03.113Z,940.74
2022-09-02T00:35:03.351Z,940.78
2022-09-02T00:40:08.403Z,940.72
2022-09-02T00:45:03.146Z,940.76
2022-09-02T00:50:03.481Z,940.76
2022-09-02T00:55:03.351Z,940.68
2022-09-02T01:00:03.205Z,940.70
2022-09-02T01:05:03.219Z,940.68
2022-09-02T01:10:03.242Z,940.57
2022-09-02T01:15:03.168Z,940.49
2022-09-02T01:20:03.242Z,940.59
2022-09-02T01:25:08.231Z,940.49
2022-09-02T01:30:03.105Z,940.45
2022-09-02T01:35:03.089Z,940.49
2022-09-02T01:40:03.226Z,940.41
2022-09-02T01:45:03.185Z,940.45
2022-09-02T01:50:03.375Z,940.43
2022-09-02T01:55:03.333Z,940.43
2022-09-02T02:00:03.209Z,940.47
2022-09-02T02:05:03.196Z,940.64
2022-09-02T02:10:03.259Z,940.68
2022-09-02T02:15:03.216Z,940.68
2022-09-02T02:20:03.200Z,940.78
2022-09-02T02:25:03.266Z,940.74
2022-09-02T02:30:03.119Z,940.74
2022-09-02T02:35:03.093Z,940.70
2022-09-02T02:40:03.284Z,940.70
2022-09-02T02:45:03.208Z,940.74
2022-09-02T02:50:04.341Z,940.80
2022-09-02T02:55:03.251Z,940.68
2022-09-02T03:00:03.146Z,940.70
2022-09-02T03:05:03.038Z,940.66
2022-09-02T03:10:03.173Z,940.57
2022-09-02T03:15:03.190Z,940.59
2022-09-02T03:20:03.294Z,940.57
2022-09-02T03:25:03.221Z,940.55
2022-09-02T03:30:03.339Z,940.45
2022-09-02T03:35:03.023Z,940.41
2022-09-02T03:40:03.363Z,940.37
2022-09-02T03:45:03.178Z,940.31
2022-09-02T03:50:03.434Z,940.35
2022-09-02T03:55:03.202Z,940.31
2022-09-02T04:00:03.167Z,940.43
2022-09-02T04:05:03.058Z,940.43
2022-09-02T04:10:03.460Z,940.49
2022-09-02T04:15:03.165Z,940.39
2022-09-02T04:20:03.291Z,940.29
2022-09-02T04:25:03.225Z,940.35
2022-09-02T04:30:03.446Z,940.39
2022-09-02T04:35:03.065Z,940.25
2022-09-02T04:40:03.119Z,940.19
2022-09-02T04:45:03.126Z,940.19
2022-09-02T04:50:03.336Z,940.21
2022-09-02T04:55:03.169Z,940.21
2022-09-02T05:00:03.360Z,940.15
2022-09-02T05:05:03.031Z,940.08
2022-09-02T05:10:03.194Z,939.98
2022-09-02T05:15:03.129Z,939.98
2022-09-02T05:20:03.365Z,939.96
2022-09-02T05:25:03.201Z,939.82
2022-09-02T05:30:03.297Z,939.86
2022-09-02T05:35:03.196Z,939.94
2022-09-02T05:40:03.207Z,939.94
2022-09-02T05:45:03.263Z,939.88
2022-09-02T05:50:03.290Z,939.84
2022-09-02T05:55:03.176Z,939.98
2022-09-02T06:00:03.352Z,940.00
2022-09-02T06:05:02.983Z,940.00
2022-09-02T06:10:03.128Z,940.00
2022-09-02T06:15:03.107Z,939.92
2022-09-02T06:20:03.227Z,939.86
2022-09-02T06:25:03.184Z,939.76
2022-09-02T06:30:03.338Z,939.80
2022-09-02T06:35:03.019Z,939.80
2022-09-02T06:40:03.305Z,939.92
2022-09-02T06:45:03.106Z,939.90
2022-09-02T06:50:03.229Z,939.82
2022-09-02T06:55:03.275Z,939.84
2022-09-02T07:00:03.301Z,939.76
2022-09-02T07:05:03.018Z,939.78
2022-09-02T07:10:03.130Z,939.92
2022-09-02T07:15:03.192Z,939.92
2022-09-02T07:20:03.307Z,939.96
2022-09-02T07:25:03.166Z,939.96
2022-09-02T07:30:03.342Z,940.02
2022-09-02T07:35:03.213Z,940.21
2022-09-02T07:40:03.152Z,940.49
2022-09-02T07:45:03.133Z,940.59
2022-09-02T07:50:20.525Z,940.78
2022-09-02T07:55:03.147Z,941.13
2022-09-02T08:00:03.380Z,941.61
2022-09-02T08:05:03.242Z,941.88
2022-09-02T08:10:03.111Z,941.74
2022-09-02T08:15:03.068Z,941.70
2022-09-02T08:20:03.244Z,941.74
2022-09-02T08:25:03.157Z,941.72
2022-09-02T08:30:03.423Z,942.02
2022-09-02T08:35:03.229Z,942.63
2022-09-02T08:40:03.133Z,943.02
2022-09-02T08:45:03.128Z,943.20
2022-09-02T08:50:03.196Z,942.33
2022-09-02T08:55:03.161Z,942.13
2022-09-02T09:00:03.252Z,941.94
2022-09-02T09:05:03.017Z,941.55
2022-09-02T09:10:03.247Z,941.17
2022-09-02T09:15:03.154Z,941.29
2022-09-02T09:20:03.182Z,941.39
2022-09-02T09:25:03.344Z,941.49
2022-09-02T09:30:03.277Z,941.51
2022-09-02T09:35:03.237Z,941.90
2022-09-02T09:40:03.244Z,942.17
2022-09-02T09:45:03.061Z,942.90
2022-09-02T09:50:03.204Z,943.06
2022-09-02T09:55:03.150Z,943.29
2022-09-02T10:00:03.233Z,943.47
2022-09-02T10:05:03.254Z,943.63
2022-09-02T10:10:03.154Z,943.61
2022-09-02T10:15:03.144Z,943.88
2022-09-02T10:20:04.458Z,943.59
2022-09-02T10:25:03.167Z,943.23
2022-09-02T10:30:03.229Z,943.08
2022-09-02T10:35:03.052Z,942.96
2022-09-02T10:40:03.214Z,942.92
2022-09-02T10:45:03.171Z,943.10
2022-09-02T10:50:03.335Z,943.29
2022-09-02T10:55:03.185Z,943.25
2022-09-02T11:00:03.315Z,943.02
2022-09-02T11:05:03.205Z,942.82
2022-09-02T11:10:03.271Z,942.66
2022-09-02T11:15:03.129Z,942.41
2022-09-02T11:20:03.151Z,941.96
2022-09-02T11:25:03.190Z,942.02
2022-09-02T11:30:03.247Z,942.08
2022-09-02T11:35:03.068Z,942.63
2022-09-02T11:40:17.547Z,943.35
2022-09-02T11:45:03.106Z,943.16
2022-09-02T11:50:04.238Z,942.98
2022-09-02T11:55:04.199Z,942.78
2022-09-02T12:00:03.215Z,942.82
2022-09-02T12:05:03.655Z,943.04
2022-09-02T12:10:03.261Z,942.98
2022-09-02T12:15:03.095Z,942.74
2022-09-02T12:20:03.186Z,942.41
2022-09-02T12:25:03.093Z,942.55
2022-09-02T12:30:03.161Z,942.43
2022-09-02T12:35:03.240Z,942.49
2022-09-02T12:40:03.346Z,942.47
2022-09-02T12:45:03.175Z,942.47
2022-09-02T12:50:03.223Z,942.84
2022-09-02T12:55:03.187Z,943.35
2022-09-02T13:00:03.285Z,943.37
2022-09-02T13:05:03.305Z,943.23
2022-09-02T13:10:03.312Z,943.04
2022-09-02T13:15:03.049Z,943.04
2022-09-02T13:20:03.233Z,943.16
2022-09-02T13:25:03.156Z,943.14
2022-09-02T13:30:03.343Z,943.29
2022-09-02T13:35:03.160Z,943.41
2022-09-02T13:40:03.274Z,943.45
2022-09-02T13:45:04.024Z,943.43
2022-09-02T13:50:03.342Z,943.47
2022-09-02T13:55:03.121Z,943.37
2022-09-02T14:00:03.510Z,943.43
2022-09-02T14:05:03.222Z,943.45
2022-09-02T14:10:03.427Z,943.29
2022-09-02T14:15:03.093Z,943.16
2022-09-02T14:20:04.290Z,942.94
2022-09-02T14:25:03.152Z,942.88
2022-09-02T14:30:03.229Z,942.80
2022-09-02T14:35:03.225Z,942.59
2022-09-02T14:40:03.787Z,942.43
2022-09-02T14:45:03.079Z,942.37
2022-09-02T14:50:03.199Z,942.29
2022-09-02T14:55:03.056Z,942.23
2022-09-02T15:00:03.258Z,942.21
2022-09-02T15:05:03.194Z,942.35
2022-09-02T15:10:03.299Z,942.35
2022-09-02T15:15:03.066Z,942.29
2022-09-02T15:20:03.163Z,942.17
2022-09-02T15:25:03.238Z,942.23
2022-09-02T15:30:03.273Z,942.15
2022-09-02T15:35:03.215Z,942.04
2022-09-02T15:40:03.292Z,941.92
2022-09-02T15:45:03.055Z,941.96
2022-09-02T15:50:03.412Z,942.10
2022-09-02T15:55:03.305Z,942.13
2022-09-02T16:00:09.169Z,942.21
2022-09-02T16:05:03.190Z,942.17
2022-09-02T16:10:04.900Z,942.13
2022-09-02T16:15:03.229Z,942.15
2022-09-02T16:20:03.145Z,942.11
2022-09-02T16:25:03.158Z,942.25
2022-09-02T16:30:03.208Z,942.17
2022-09-02T16:35:03.243Z,942.10
2022-09-02T16:40:03.502Z,942.11
2022-09-02T16:45:03.157Z,942.17
2022-09-02T16:50:03.150Z,942.15
2022-09-02T16:55:03.075Z,942.06
2022-09-02T17:00:03.276Z,942.00
2022-09-02T17:05:03.206Z,941.86
2022-09-02T17:10:03.007Z,941.82
2022-09-02T17:15:03.205Z,941.82
2022-09-02T17:20:03.221Z,941.76
2022-09-02T17:25:03.065Z,941.59
2022-09-02T17:30:03.299Z,941.45
2022-09-02T17:35:03.173Z,941.47
2022-09-02T17:40:03.368Z,941.53
2022-09-02T17:45:03.242Z,941.57
2022-09-02T17:50:03.190Z,941.59
2022-09-02T17:55:03.124Z,941.82
2022-09-02T18:00:03.217Z,942.76
2022-09-02T18:05:03.194Z,943.49
2022-09-02T18:10:03.271Z,943.33
2022-09-02T18:15:03.352Z,943.25
2022-09-02T18:20:03.208Z,942.96
2022-09-02T18:25:03.117Z,942.55
2022-09-02T18:30:03.151Z,942.57
2022-09-02T18:35:03.234Z,942.17
2022-09-02T18:40:03.589Z,941.76
2022-09-02T18:45:04.278Z,941.80
2022-09-02T18:50:03.121Z,941.94
2022-09-02T18:55:03.130Z,941.92
2022-09-02T19:00:03.275Z,941.94
2022-09-02T19:05:03.364Z,941.90
2022-09-02T19:10:03.303Z,942.00
2022-09-02T19:15:03.222Z,942.06
2022-09-02T19:20:03.171Z,942.10
2022-09-02T19:25:03.075Z,942.15
2022-09-02T19:30:03.154Z,942.31
2022-09-02T19:35:03.162Z,942.37
2022-09-02T19:40:04.301Z,942.43
2022-09-02T19:45:03.313Z,942.53
2022-09-02T19:50:03.373Z,942.61
2022-09-02T19:55:03.062Z,942.61
2022-09-02T20:00:08.216Z,942.63
2022-09-02T20:05:03.138Z,942.68
2022-09-02T20:10:03.295Z,942.70
2022-09-02T20:15:03.185Z,942.76
2022-09-02T20:20:03.165Z,942.86
2022-09-02T20:25:03.146Z,942.88
2022-09-02T20:30:03.176Z,942.90
2022-09-02T20:35:03.136Z,942.96
2022-09-02T20:40:03.433Z,943.04
2022-09-02T20:45:03.239Z,943.06
2022-09-02T20:50:03.309Z,943.08
2022-09-02T20:55:03.085Z,943.04
2022-09-02T21:00:04.274Z,943.06
2022-09-02T21:05:03.175Z,943.14
2022-09-02T21:10:03.237Z,943.12
2022-09-02T21:15:03.283Z,943.02
2022-09-02T21:20:03.195Z,943.00
2022-09-02T21:25:03.024Z,943.02
2022-09-02T21:30:03.378Z,943.04
2022-09-02T21:35:03.164Z,943.00
2022-09-02T21:40:03.363Z,942.98
2022-09-02T21:45:08.443Z,942.92
2022-09-02T21:50:03.394Z,943.18
2022-09-02T21:55:03.233Z,943.14
2022-09-02T22:00:03.208Z,943.20
2022-09-02T22:05:03.149Z,943.25
2022-09-02T22:10:03.384Z,943.29
2022-09-02T22:15:03.427Z,943.25
2022-09-02T22:20:03.395Z,943.33
2022-09-02T22:25:03.011Z,943.43
2022-09-02T22:30:03.225Z,943.39
2022-09-02T22:35:03.182Z,943.47
2022-09-02T22:40:03.289Z,943.59
2022-09-02T22:45:03.204Z,943.65
2022-09-02T22:50:03.300Z,943.78
2022-09-02T22:55:03.330Z,943.82
2022-09-02T23:00:03.249Z,943.80
2022-09-02T23:05:03.128Z,943.94
2022-09-02T23:10:03.227Z,944.08
2022-09-02T23:15:03.236Z,944.19
2022-09-02T23:20:03.171Z,944.21
2022-09-02T23:25:03.153Z,944.35
2022-09-02T23:30:03.333Z,944.37
2022-09-02T23:35:03.293Z,944.37
2022-09-02T23:40:03.306Z,944.25
2022-09-02T23:45:03.169Z,944.27
2022-09-02T23:50:03.367Z,944.25
2022-09-02T23:55:03.144Z,944.35
